South Lake Tahoe, California
Current Conditions -  °F | °C
As of 7:53 PM on Saturday 24 Jan 2015 (Local Time) from KTVL Reporting Station
Clear Clear  
Wind Chill: 42°   Ceiling: Unl
Heat Index: 44°   Visibility: 10mi
Dew Point: 18°   Wind: 5mph
Humidity: 35%   Direction: 210°SSW
Pressure: 30.39"   Gusts: NA
Location:  38.91°N, 120°W
Report Text: KTVL 250353Z AUTO 21004KT 10SM CLR 07/M08 A3039 RMK AO2 SLP290 T00671078
Loading
Personal Weather Stations






























Interactive Weather Map New forecast layout! Learn more

10-Day Weather Forecast

Advertisements
Track Severe Weather on mobile